Extreme hitte van: 08-08-2020 23:00 tot: 10-08-2020 23:00 waarschuwing voor: Extreme hitte niveau: Geel info button


METAR rapporten vliegvelden

   
EHVK - Volkel Rnlafb, Netherlands
Afstand tot: ZW 18 km
Gewijzigd: 09-08-2020 04:55
Bewolking  
Bewolking  
   Wind: Noorden 5.6 km/h
Wind: Noorden 5.6 km/h
Temperatuur: 21°C
Dauwpunt: 16°C
Vochtigheid: 73%
Barometer: 1018 hPa
Bewolking: Bewolking
Zicht: meer dan 10 km
Bewolking: Bewolking 16000 ft
EHVK 090255Z AUTO 36003KT 9999 OVC160 21/16 Q1018 BLU
EDLV - Niederrhein, Germany
Afstand tot: ZO 25 km
Gewijzigd: 09-08-2020 04:50
Helder  
Helder  
   Wind: NNO 5.6 km/h
Wind: NNO 5.6 km/h
Temperatuur: 23°C
Dauwpunt: 16°C
Vochtigheid: 65%
Barometer: 1018 hPa
Zicht: meer dan 10 km
Bewolking: Helder
EDLV 090250Z 02003KT CAVOK 23/16 Q1018
EHDL - Deelen Rnlafb, Netherlands
Afstand tot: N 35 km
Gewijzigd: 09-08-2020 04:55
Bewolking  
Bewolking  
   Wind: varieert 3.7 km/h
Wind: varieert 3.7 km/h
Temperatuur: 23°C
Dauwpunt: 16°C
Vochtigheid: 65%
Barometer: 1018 hPa
Bewolking: Bewolking
Zicht: meer dan 10 km
Bewolking: Bewolking 14000 ft
EHDL 090255Z AUTO VRB02KT 9999 OVC140 23/16 Q1018 BLU
EHEH - Eindhoven Rnlafb, Netherlands
Afstand tot: ZW 48 km
Gewijzigd: 09-08-2020 04:55
Bewolking  
Bewolking  
   Wind: NNO 5.6 km/h
Wind: NNO 5.6 km/h
Temperatuur: 23°C
Dauwpunt: 17°C
Vochtigheid: 69%
Barometer: 1017 hPa
Bewolking: Bewolking
Zicht: meer dan 10 km
Bewolking: Bewolking 12000 ft
EHEH 090255Z AUTO 02003KT 350V050 9999 OVC120 23/17 Q1017 BLU
EHGR - Gilze-Rijen Rnla, Netherlands
Afstand tot: WZW 70 km
Gewijzigd: 09-08-2020 04:55
Bewolking  
Bewolking  
   Wind: NO 7.4 km/h
Wind: NO 7.4 km/h
Temperatuur: 23°C
Dauwpunt: 17°C
Vochtigheid: 69%
Barometer: 1018 hPa
Bewolking: Bewolking
Zicht: meer dan 10 km
Bewolking: Licht bewolkt 2500 ft,
Bewolking 14000 ft
EHGR 090255Z AUTO 04004KT 010V090 9999 FEW025CB OVC140 23/17 Q1018 BLU
EBBL - Kleine-Brogel(Ba, Belgium
Afstand tot: ZZW 71 km
Gewijzigd: 09-08-2020 04:55
Bewolking  
Bewolking  
   Wind: varieert 3.7 km/h
Wind: varieert 3.7 km/h
Temperatuur: 23°C
Dauwpunt: 16°C
Vochtigheid: 65%
Barometer: 1018 hPa
Bewolking: Bewolking
Zicht: meer dan 10 km
Bewolking: Bewolking 12000 ft
EBBL 090255Z AUTO VRB02KT 9999 OVC120/// 23/16 Q1018 BLU

Script ontwikkeld door  Saratoga-weather.org Aangepast voor de template door  Weerstation Leuven